Latest Coastal Weather Observations for Maningrida Airport

IDD60701

Issued at 5:55 pm CST Monday 28 July 2014 (issued every 10 minutes, with the page automatically refreshed every 10 minutes)

About coastal observations | Map of coastal stations | Coastal observations for NT | Marine services | Other Formats
Station Details ID: 014405 Name: MANINGRIDA AIRPORT Lat: -12.06 Lon: 134.23 Height: 28.1 m
Data from the previous 72 hours. | See also: Recent months at Maningrida Airport
Date/Time
CST
Temp

°C
Wind Pressure Rain
since 9am
mm
Weather Cloud Vis
km
Sea
Height
m
Swell
Dir
 
Speed
knots
Gust
knots
hPa Trend Height
m
Period
s
Dir
28/05:30pm 26.3 ENE 9 13 1012.6 - 0.0 - Cloudy 10 - - - -
28/05:00pm 26.5 ENE 10 14 1012.3 - 0.0 - Partly cloudy 10 - - - -
28/04:30pm 27.6 ENE 8 14 1011.9 - 0.0 - Cloudy 10 - - - -
28/04:00pm 27.3 ENE 7 10 1012.0 - 0.0 - Cloudy 10 - - - -
28/03:30pm 27.5 NNE 8 11 1012.1 - 0.0 - Partly cloudy 10 - - - -
28/03:00pm 27.7 NE 9 14 1012.2 - 0.0 - Cloudy 10 - - - -
28/02:30pm 28.5 NE 9 13 1012.6 - 0.0 - Partly cloudy 10 - - - -
28/02:00pm 29.6 E 10 14 1013.0 - 0.0 - Partly cloudy 10 - - - -
28/01:30pm 29.8 E 10 15 1013.4 - 0.0 - Partly cloudy 10 - - - -
28/01:00pm 29.8 E 9 13 1013.9 - 0.0 - Partly cloudy 10 - - - -
28/12:30pm 29.5 ESE 10 13 1014.5 - 0.0 - Partly cloudy 10 - - - -
28/12:00pm 29.4 ESE 9 14 1015.0 - 0.0 - Cloudy 10 - - - -
28/11:30am 28.9 ESE 9 16 1015.6 - 0.0 - Partly cloudy 10 - - - -
28/11:00am 28.2 ESE 12 19 1016.1 - 0.0 - Partly cloudy 10 - - - -
28/10:30am 27.9 ESE 11 16 1016.5 - 0.0 - - 10 - - - -
28/10:00am 26.7 SE 11 17 1016.6 - 0.0 - - 10 - - - -
28/09:30am 25.8 SE 9 16 1016.6 - 0.0 - - 10 - - - -
28/09:00am 23.8 SE 11 16 1016.3 - 0.0 - - 10 - - - -
28/08:30am 22.8 SSE 9 14 1016.1 - 0.0 - - 10 - - - -
28/08:00am 21.0 S 6 9 1016.1 - 0.0 - - 10 - - - -
28/07:30am 19.9 S 5 7 1015.7 - 0.0 - - 10 - - - -
28/07:00am 19.7 S 5 7 1015.5 - 0.0 - - 10 - - - -
28/06:30am 19.8 S 4 5 1015.2 - 0.0 - - 10 - - - -
28/06:00am 20.0 S 5 8 1014.8 - 0.0 - - 10 - - - -
28/05:30am 19.3 S 3 5 1014.8 - 0.0 - - 10 - - - -
28/05:00am 19.9 S 4 5 1014.7 - 0.0 - - 10 - - - -
28/04:30am 20.1 SSE 4 5 1014.6 - 0.0 - Partly cloudy 10 - - - -
28/04:00am 20.6 SSE 4 5 1014.3 - 0.0 - - 10 - - - -
28/03:30am 20.9 SSE 5 6 1014.5 - 0.0 - Partly cloudy 10 - - - -
28/03:00am 21.1 S 4 6 1014.5 - 0.0 - - 10 - - - -
28/02:30am 21.2 SSE 4 5 1015.0 - 0.0 - - 10 - - - -
28/02:00am 21.7 SE 5 6 1015.3 - 0.0 - - 10 - - - -
28/01:30am 22.0 SSE 7 8 1015.6 - 0.0 - - 10 - - - -
28/01:00am 22.8 SE 8 9 1015.8 - 0.0 - - 10 - - - -
28/12:30am 23.1 SE 8 9 1015.9 - 0.0 - - 10 - - - -
28/12:00am 23.4 SE 8 10 1015.6 - 0.0 - - 10 - - - -
 
Date/Time
CST
Temp

°C
Wind Pressure Rain
since 9am
mm
Weather Cloud Vis
km
Sea
Height
m
Swell
Dir
 
Speed
knots
Gust
knots
hPa Trend Height
m
Period
s
Dir
27/11:30pm 23.9 SE 9 12 1015.8 - 0.0 - - 10 - - - -
27/11:00pm 24.3 SE 8 13 1015.8 - 0.0 - - 10 - - - -
27/10:30pm 24.7 SE 9 12 1015.8 - 0.0 - - 10 - - - -
27/10:00pm 24.5 SE 8 11 1015.7 - 0.0 - - 10 - - - -
27/09:30pm 23.9 ESE 6 7 1015.3 - 0.0 - - 10 - - - -
27/09:00pm 23.9 E 5 6 1015.0 - 0.0 - - 10 - - - -
27/08:30pm 24.2 ESE 4 5 1015.0 - 0.0 - - 10 - - - -
27/08:00pm 24.7 E 5 6 1014.5 - 0.0 - - 10 - - - -
27/07:30pm 25.1 E 5 7 1014.1 - 0.0 - - 10 - - - -
27/07:00pm 25.6 E 6 8 1014.0 - 0.0 - Partly cloudy 10 - - - -
27/06:30pm 26.1 E 5 7 1013.6 - 0.0 - Cloudy 10 - - - -
27/06:00pm 26.4 E 6 8 1013.1 - 0.0 - Mostly cloudy 10 - - - -
27/05:30pm 27.7 ENE 7 11 1012.9 - 0.0 - Partly cloudy 10 - - - -
27/05:00pm 28.0 NE 8 11 1012.7 - 0.0 - - 10 - - - -
27/04:30pm 27.3 NE 9 13 1012.7 - 0.0 - Partly cloudy 10 - - - -
27/04:00pm 28.4 NE 8 12 1012.7 - 0.0 - Partly cloudy 10 - - - -
27/03:30pm 30.0 NE 7 10 1012.5 - 0.0 - Partly cloudy 10 - - - -
27/03:00pm 28.7 NE 6 11 1012.6 - 0.0 - Cloudy 10 - - - -
27/02:30pm 30.4 E 7 11 1013.0 - 0.0 - Partly cloudy 10 - - - -
27/02:00pm 30.9 E 7 13 1013.3 - 0.0 - Partly cloudy 10 - - - -
27/01:30pm 29.9 ESE 9 13 1014.1 - 0.0 - Partly cloudy 10 - - - -
27/01:00pm 30.1 SE 12 18 1014.7 - 0.0 - Partly cloudy 10 - - - -
27/12:30pm 29.1 ESE 10 15 1015.3 - 0.0 - Partly cloudy 10 - - - -
27/12:00pm 29.0 ESE 15 21 1015.7 - 0.0 - Partly cloudy 10 - - - -
27/11:30am 28.3 ESE 12 18 1016.3 - 0.0 - Partly cloudy 10 - - - -
27/11:00am 28.8 E 10 14 1016.8 - 0.0 - - 10 - - - -
27/10:30am 28.0 SE 10 17 1017.0 - 0.0 - - 10 - - - -
27/10:00am 27.1 ESE 10 16 1017.1 - 0.0 - - 10 - - - -
27/09:30am 26.0 SE 10 13 1017.2 - 0.0 - - 10 - - - -
27/09:00am 24.7 SE 10 14 1017.0 - 0.0 - - 10 - - - -
27/08:30am 23.5 SE 9 11 1016.9 - 0.0 - - 10 - - - -
27/08:00am 22.1 SSE 8 14 1016.6 - 0.0 - - 10 - - - -
27/07:30am 20.6 SSE 6 8 1016.2 - 0.0 - - 10 - - - -
27/07:00am 19.8 SSE 5 7 1016.1 - 0.0 - - 10 - - - -
27/06:30am 20.0 SSE 5 7 1015.9 - 0.0 - - 10 - - - -
27/06:00am 20.0 SSE 5 7 1015.6 - 0.0 - - 10 - - - -
27/05:30am 20.0 S 5 6 1015.5 - 0.0 - - 10 - - - -
27/05:00am 20.2 S 5 6 1015.2 - 0.0 - - 10 - - - -
27/04:30am 20.6 S 5 6 1015.1 - 0.0 - - 10 - - - -
27/04:00am 20.9 S 5 7 1015.2 - 0.0 - - 10 - - - -
27/03:30am 20.8 SSE 4 5 1015.3 - 0.0 - - 10 - - - -
27/03:00am 21.3 S 4 6 1015.5 - 0.0 - - 10 - - - -
27/02:30am 21.7 SSE 6 7 1015.9 - 0.0 - - 10 - - - -
27/02:00am 21.8 SSE 5 6 1016.2 - 0.0 - - 10 - - - -
27/01:30am 22.4 SSE 7 11 1016.5 - 0.0 - - 10 - - - -
27/01:00am 22.9 SSE 8 10 1016.7 - 0.0 - - 10 - - - -
27/12:30am 23.4 SSE 8 11 1016.8 - 0.0 - Partly cloudy 10 - - - -
27/12:00am 24.1 SE 9 12 1016.9 - 0.0 - Mostly cloudy 10 - - - -
 
Date/Time
CST
Temp

°C
Wind Pressure Rain
since 9am
mm
Weather Cloud Vis
km
Sea
Height
m
Swell
Dir
 
Speed
knots
Gust
knots
hPa Trend Height
m
Period
s
Dir
26/11:30pm 24.4 SE 9 14 1017.2 - 0.0 - Partly cloudy 10 - - - -
26/11:00pm 24.5 SE 9 14 1017.2 - 0.0 - Partly cloudy 10 - - - -
26/10:30pm 24.5 SE 7 11 1017.4 - 0.0 - Cloudy 10 - - - -
26/10:00pm 24.3 ESE 5 7 1017.4 - 0.0 - Cloudy 10 - - - -
26/09:30pm 24.3 ESE 6 8 1017.3 - 0.0 - Cloudy 10 - - - -
26/09:00pm 24.4 E 9 13 1017.1 - 0.0 - Cloudy 10 - - - -
26/08:30pm 25.1 E 9 16 1016.8 - 0.0 - Partly cloudy 10 - - - -
26/08:00pm 25.2 E 6 9 1016.6 - 0.0 - Partly cloudy 10 - - - -
26/07:30pm 25.0 E 7 11 1016.1 - 0.0 - Partly cloudy 10 - - - -
26/07:00pm 25.2 ENE 8 12 1016.0 - 0.0 - Partly cloudy 10 - - - -
26/06:30pm 25.3 ENE 7 10 1015.6 - 0.0 - Partly cloudy 10 - - - -
26/06:00pm 26.0 ENE 9 15 1015.2 - 0.0 - Partly cloudy 10 - - - -
26/05:30pm 27.0 ENE 9 12 1014.9 - 0.0 - - 10 - - - -
26/05:00pm 27.5 NE 9 14 1014.5 - 0.0 - - 10 - - - -
26/04:30pm 27.9 N 11 14 1014.2 - 0.0 - - 10 - - - -
26/04:00pm 29.2 NE 8 11 1014.0 - 0.0 - - 10 - - - -
26/03:30pm 30.0 NE 7 11 1013.7 - 0.0 - Partly cloudy 10 - - - -
26/03:00pm 30.3 ESE 7 9 1013.6 - 0.0 - Cloudy 10 - - - -
26/02:30pm 29.8 E 6 11 1014.0 - 0.0 - Partly cloudy 10 - - - -
26/02:00pm 29.5 ENE 7 12 1014.5 - 0.0 - - 10 - - - -
26/01:30pm 29.2 E 9 14 1015.0 - 0.0 - Partly cloudy 10 - - - -
26/01:00pm 28.3 E 7 13 1015.3 - 0.0 - Partly cloudy 10 - - - -
26/12:30pm 28.2 ESE 9 14 1015.8 - 0.0 - - 10 - - - -
26/12:00pm 28.8 ESE 11 15 1016.1 - 0.0 - - 10 - - - -
26/11:30am 27.4 SE 12 15 1016.6 - 0.0 - - 10 - - - -
26/11:00am 27.2 ESE 12 17 1016.9 - 0.0 - - 10 - - - -
26/10:30am 26.4 SE 10 14 1017.0 - 0.0 - - 10 - - - -
26/10:00am 26.4 ESE 8 11 1017.1 - 0.0 - - 10 - - - -
26/09:30am 24.6 ESE 10 15 1017.1 - 0.0 - - 10 - - - -
26/09:00am 23.4 SE 9 13 1017.0 - 0.0 - Mostly clear 10 - - - -
26/08:30am 22.2 SE 9 11 1017.0 - 0.0 - Partly cloudy 10 - - - -
26/08:00am 21.5 SE 7 9 1016.7 - 0.0 - - 10 - - - -
26/07:30am 20.0 SSE 5 7 1016.3 - 0.0 - - 10 - - - -
26/07:00am 19.5 S 5 7 1016.2 - 0.0 - - 10 - - - -
26/06:30am 19.6 S 5 6 1016.3 - 0.0 - - 10 - - - -
26/06:00am 19.8 S 4 5 1016.1 - 0.0 - - 10 - - - -
26/05:30am 20.2 S 3 5 1016.2 - 0.0 - - 10 - - - -
26/05:00am 20.7 SSE 3 4 1016.0 - 0.0 - - 10 - - - -
26/04:30am 21.2 S 4 6 1015.9 - 0.0 - - 10 - - - -
26/04:00am 21.7 SE 5 7 1015.7 - 0.0 - - 10 - - - -
26/03:30am 22.1 SE 7 9 1015.8 - 0.0 - - 10 - - - -
26/03:00am 22.5 SSE 8 10 1015.9 - 0.0 - Mostly clear 10 - - - -
26/02:30am 23.1 SE 9 11 1016.1 - 0.0 - Partly cloudy 10 - - - -
26/02:00am 23.4 ESE 9 14 1016.3 - 0.0 - Partly cloudy 10 - - - -
26/01:30am 23.4 ESE 8 12 1016.5 - 0.0 - Partly cloudy 10 - - - -
26/01:00am 23.4 SE 8 13 1016.7 - 0.0 - Partly cloudy 10 - - - -
26/12:30am 23.2 ESE 9 14 1016.9 - 0.0 - Partly cloudy 10 - - - -
26/12:00am 22.9 ESE 10 15 1016.9 - 0.0 - Partly cloudy 10 - - - -
 
Date/Time
CST
Temp

°C
Wind Pressure Rain
since 9am
mm
Weather Cloud Vis
km
Sea
Height
m
Swell
Dir
 
Speed
knots
Gust
knots
hPa Trend Height
m
Period
s
Dir
25/11:30pm 22.5 SE 6 8 1017.4 - 0.0 - Partly cloudy 10 - - - -
25/11:00pm 22.6 SE 4 5 1017.3 - 0.0 - - 10 - - - -
25/10:30pm 22.9 ESE 4 6 1017.1 - 0.0 - - 10 - - - -
25/10:00pm 23.0 E 4 5 1017.0 - 0.0 - Partly cloudy 10 - - - -
25/09:30pm 23.1 E 4 6 1016.7 - 0.0 - - 10 - - - -
25/09:00pm 23.2 E 4 5 1016.0 - 0.0 - - 8 - - - -
25/08:30pm 23.4 E 4 5 1015.8 - 0.0 - Partly cloudy 10 - - - -
25/08:00pm 23.6 ENE 4 6 1015.5 - 0.0 - - 10 - - - -
25/07:30pm 23.7 ENE 4 5 1014.9 - 0.0 - - 10 - - - -
25/07:00pm 24.2 NE 4 6 1014.6 - 0.0 - - 10 - - - -
25/06:30pm 24.5 NE 6 8 1014.4 - 0.0 - - 10 - - - -
25/06:00pm 25.5 NE 8 11 1014.0 - 0.0 - - 10 - - - -

Other Formats:

Comma delimited format used in spreadsheet applications
http://www.bom.gov.au/fwo/IDD60701/IDD60701.95142.axf

JavaScript Object Notation format (JSON) in row-major order
http://www.bom.gov.au/fwo/IDD60701/IDD60701.95142.json